Time;durP1;ratioP1;P1;durP2;ratioP2;P2;SDS_P1;SDS_P2;PMS_P1;PMS_P2;Temp;Humidity;BMP_temperature;BMP_pressure;BME280_temperature;BME280_humidity;BME280_pressure;Samples;Min_cycle;Max_cycle;Signal;HPM_P1;HPM_P2
2021/12/26 00:01:02;;;;;;;106.60;68.43;;;;;;;5.47;76.53;94498.44;5053102;28;20174;-81
2021/12/26 00:03:30;;;;;;;125.87;63.87;;;;;;;5.33;76.30;94468.03;5068921;28;20668;-81
2021/12/26 00:05:58;;;;;;;118.50;70.00;;;;;;;5.38;76.94;94480.50;5063253;28;20576;-81
2021/12/26 00:08:24;;;;;;;143.00;72.33;;;;;;;5.23;76.48;94470.13;5064237;28;20247;-81
2021/12/26 00:10:50;;;;;;;118.43;69.00;;;;;;;5.17;77.11;94487.34;5059506;28;20186;-81
2021/12/26 00:13:17;;;;;;;167.13;89.63;;;;;;;4.98;77.82;94493.19;5061407;28;20544;-81
2021/12/26 00:15:43;;;;;;;125.30;70.17;;;;;;;4.95;78.10;94483.09;5064014;28;20960;-80
2021/12/26 00:18:11;;;;;;;116.57;68.60;;;;;;;4.84;77.98;94488.84;5060475;28;20171;-81
2021/12/26 00:20:38;;;;;;;130.80;75.90;;;;;;;4.77;78.03;94474.91;5060679;28;20639;-81
2021/12/26 00:23:04;;;;;;;103.47;59.83;;;;;;;4.77;78.34;94498.34;5067056;28;20663;-81
2021/12/26 00:25:30;;;;;;;91.73;59.30;;;;;;;4.73;78.54;94486.69;5060568;28;20179;-81
2021/12/26 00:27:56;;;;;;;107.80;52.83;;;;;;;4.56;79.09;94465.25;5060988;28;20241;-81
2021/12/26 00:30:21;;;;;;;90.40;50.93;;;;;;;4.65;79.09;94492.84;5061093;28;20171;-80
2021/12/26 00:32:48;;;;;;;124.33;56.30;;;;;;;4.58;78.65;94470.28;5059800;28;20174;-81
2021/12/26 00:35:17;;;;;;;94.10;47.03;;;;;;;4.70;79.16;94498.28;5061949;28;20268;-80
2021/12/26 00:37:43;;;;;;;98.60;52.73;;;;;;;4.51;79.13;94471.00;5063916;28;20171;-81
2021/12/26 00:40:11;;;;;;;92.73;48.30;;;;;;;4.56;78.85;94470.47;5055647;28;20174;-80
2021/12/26 00:42:36;;;;;;;95.93;48.50;;;;;;;4.53;78.77;94470.81;5063896;28;20170;-80
2021/12/26 00:45:06;;;;;;;92.23;48.70;;;;;;;4.70;78.88;94507.91;5063970;28;20182;-81
2021/12/26 00:47:33;;;;;;;97.63;45.80;;;;;;;4.52;79.03;94475.22;5056481;28;20248;-80
2021/12/26 00:50:02;;;;;;;104.47;56.50;;;;;;;4.71;79.15;94499.91;5065922;28;20163;-81
2021/12/26 00:52:29;;;;;;;135.37;60.87;;;;;;;4.61;79.31;94506.41;5062350;28;20290;-80
2021/12/26 00:54:55;;;;;;;101.00;46.63;;;;;;;4.53;79.98;94496.88;5063671;28;20210;-80
2021/12/26 00:57:21;;;;;;;116.23;46.47;;;;;;;4.57;79.94;94510.38;5063422;28;20181;-80
2021/12/26 00:59:46;;;;;;;102.90;42.83;;;;;;;4.50;80.18;94495.44;5060408;28;20207;-80
2021/12/26 01:02:12;;;;;;;107.90;44.23;;;;;;;4.17;79.44;94466.38;5060543;28;20565;-81
2021/12/26 01:04:39;;;;;;;92.90;40.63;;;;;;;4.12;80.73;94484.38;5062355;28;20175;-80
2021/12/26 01:07:11;;;;;;;93.73;40.23;;;;;;;4.07;80.69;94486.69;5063580;28;20163;-80
2021/12/26 01:09:37;;;;;;;98.27;45.60;;;;;;;4.09;80.76;94484.72;5062366;28;20171;-80
2021/12/26 01:12:11;;;;;;;94.00;43.97;;;;;;;4.12;79.99;94475.75;5060401;28;20229;-81
2021/12/26 01:14:45;;;;;;;87.03;36.70;;;;;;;4.03;81.58;94487.25;5059060;28;20174;-81
2021/12/26 01:17:14;;;;;;;88.40;32.53;;;;;;;3.87;81.53;94457.00;5060249;28;20167;-81
2021/12/26 01:19:46;;;;;;;84.23;32.30;;;;;;;4.07;81.52;94481.47;5051468;28;20175;-81
2021/12/26 01:22:12;;;;;;;83.10;36.60;;;;;;;4.16;81.93;94496.03;5056783;28;20166;-80
2021/12/26 01:24:38;;;;;;;76.87;25.67;;;;;;;4.24;80.86;94489.91;5063277;28;20198;-80
2021/12/26 01:27:04;;;;;;;84.50;38.63;;;;;;;4.24;80.65;94499.56;5052400;28;20177;-80
2021/12/26 01:29:30;;;;;;;79.97;32.20;;;;;;;4.18;80.53;94478.44;5063834;28;20195;-80
2021/12/26 01:31:57;;;;;;;82.77;37.30;;;;;;;4.09;80.34;94453.47;5063862;28;20175;-80
2021/12/26 01:34:23;;;;;;;87.37;34.10;;;;;;;4.09;80.86;94465.69;5062787;28;20205;-80
2021/12/26 01:36:48;;;;;;;78.37;25.33;;;;;;;4.07;80.81;94465.84;5071853;28;20205;-80
2021/12/26 01:39:14;;;;;;;95.87;39.57;;;;;;;4.07;81.17;94470.25;5062950;28;20167;-80
2021/12/26 01:41:42;;;;;;;89.33;33.67;;;;;;;4.02;81.72;94464.78;5054564;28;20171;-80
2021/12/26 01:44:12;;;;;;;78.20;28.13;;;;;;;4.03;81.80;94462.00;5065827;28;20215;-82
2021/12/26 01:46:39;;;;;;;54.47;26.60;;;;;;;3.92;81.55;94433.81;5066434;28;20167;-81
2021/12/26 01:49:11;;;;;;;52.37;24.60;;;;;;;3.98;81.47;94471.34;5065322;28;20973;-81
2021/12/26 01:51:37;;;;;;;44.57;22.97;;;;;;;3.85;81.74;94455.53;5065128;28;20174;-81
2021/12/26 01:54:08;;;;;;;42.50;21.87;;;;;;;3.91;82.26;94454.81;5068089;28;20222;-81
2021/12/26 01:56:34;;;;;;;42.67;22.27;;;;;;;3.60;81.41;94428.97;5066688;28;20247;-80
2021/12/26 01:59:00;;;;;;;42.87;20.63;;;;;;;3.85;81.65;94460.75;5066029;28;20241;-80
2021/12/26 02:01:26;;;;;;;42.83;19.33;;;;;;;3.80;82.12;94458.69;5064250;28;20186;-80
2021/12/26 02:03:52;;;;;;;41.27;19.53;;;;;;;3.83;81.55;94431.47;5069378;28;20167;-80
2021/12/26 02:06:18;;;;;;;37.90;18.67;;;;;;;3.78;82.05;94455.47;5075645;28;20170;-80
2021/12/26 02:08:44;;;;;;;34.37;18.37;;;;;;;3.49;82.64;94424.19;5074609;28;20713;-81
2021/12/26 02:11:10;;;;;;;39.80;19.97;;;;;;;3.67;82.48;94461.91;5062797;28;20205;-81
2021/12/26 02:13:38;;;;;;;39.23;19.97;;;;;;;3.45;82.36;94418.56;5063978;28;20202;-82
2021/12/26 02:16:08;;;;;;;33.33;18.33;;;;;;;3.66;83.10;94449.06;5055832;28;20262;-82
2021/12/26 02:18:34;;;;;;;37.70;18.70;;;;;;;3.73;82.96;94444.75;5064415;28;20163;-82
2021/12/26 02:28:46;;;;;;;34.57;17.77;;;;;;;3.75;83.04;94445.41;5071660;28;20661;-82
2021/12/26 02:31:13;;;;;;;38.60;18.77;;;;;;;3.81;82.85;94434.25;5061933;28;20207;-82
2021/12/26 02:33:41;;;;;;;38.23;17.80;;;;;;;3.94;82.67;94438.84;5056916;28;20182;-82
2021/12/26 02:36:07;;;;;;;37.60;19.00;;;;;;;3.86;82.37;94431.94;5064594;28;20170;-82
2021/12/26 02:38:34;;;;;;;44.87;19.00;;;;;;;3.82;82.24;94425.47;5074756;28;20162;-82
2021/12/26 02:41:01;;;;;;;34.67;19.17;;;;;;;4.02;82.58;94449.16;5074785;28;20151;-82
2021/12/26 02:43:29;;;;;;;31.47;18.23;;;;;;;3.92;82.43;94441.63;5074800;28;20166;-82
2021/12/26 02:45:57;;;;;;;40.10;18.97;;;;;;;3.91;82.79;94441.81;5073582;28;20186;-82
2021/12/26 02:48:23;;;;;;;40.37;19.70;;;;;;;3.99;82.25;94447.72;5073333;28;20186;-82
2021/12/26 02:50:56;;;;;;;33.07;17.57;;;;;;;3.92;82.23;94438.22;5065512;28;20576;-82
2021/12/26 02:53:21;;;;;;;38.20;17.93;;;;;;;3.63;82.70;94418.22;5061908;28;20254;-83
2021/12/26 02:55:48;;;;;;;31.33;17.13;;;;;;;3.62;83.02;94424.41;5062057;28;20686;-82
2021/12/26 02:58:14;;;;;;;29.77;15.77;;;;;;;3.49;83.13;94387.78;5071380;28;20198;-82
2021/12/26 03:00:44;;;;;;;33.83;18.27;;;;;;;3.62;82.77;94411.41;5064117;28;20266;-82
2021/12/26 03:03:11;;;;;;;33.87;16.67;;;;;;;3.80;82.64;94427.47;5063923;28;20182;-82
2021/12/26 03:05:40;;;;;;;32.83;16.97;;;;;;;3.98;82.81;94456.50;5064041;28;20174;-82
2021/12/26 03:08:10;;;;;;;31.77;16.17;;;;;;;4.02;83.00;94449.97;5063813;28;20649;-82
2021/12/26 03:10:36;;;;;;;36.37;16.37;;;;;;;4.05;82.11;94444.41;5066123;28;20185;-82
2021/12/26 03:13:05;;;;;;;38.63;19.77;;;;;;;4.08;82.11;94451.03;5065182;28;20170;-82
2021/12/26 03:15:31;;;;;;;35.60;17.27;;;;;;;4.07;82.12;94434.59;5065091;28;20185;-82
2021/12/26 03:17:58;;;;;;;35.13;17.80;;;;;;;4.13;82.34;94449.53;5056152;28;20163;-82
2021/12/26 03:20:26;;;;;;;35.67;17.40;;;;;;;4.12;81.86;94442.69;5074377;28;20182;-82
2021/12/26 03:22:52;;;;;;;44.23;21.47;;;;;;;3.94;82.35;94418.81;5074298;28;20159;-82
2021/12/26 03:25:20;;;;;;;50.33;24.10;;;;;;;4.02;82.98;94423.94;5073969;28;20185;-82
2021/12/26 03:27:47;;;;;;;50.53;26.00;;;;;;;3.70;83.25;94442.53;5073828;28;21208;-82
2021/12/26 03:30:21;;;;;;;49.83;24.30;;;;;;;3.49;84.78;94432.00;5073889;28;20533;-82
2021/12/26 03:32:47;;;;;;;68.83;32.03;;;;;;;3.55;85.37;94434.69;5063327;28;20633;-82
2021/12/26 03:35:13;;;;;;;60.20;28.13;;;;;;;3.58;85.25;94417.94;5061278;28;20178;-82
2021/12/26 03:37:39;;;;;;;65.73;30.70;;;;;;;3.73;84.62;94447.38;5067433;28;20166;-82
2021/12/26 03:40:06;;;;;;;51.87;25.17;;;;;;;3.21;85.08;94351.97;5064679;28;20572;-82
2021/12/26 03:42:32;;;;;;;68.80;30.33;;;;;;;3.56;84.84;94401.69;5063879;28;20618;-82
2021/12/26 03:44:58;;;;;;;48.23;23.20;;;;;;;3.52;84.54;94410.84;5062629;28;20263;-82
2021/12/26 03:47:24;;;;;;;37.87;18.90;;;;;;;3.87;84.65;94454.38;5059104;28;20185;-82
2021/12/26 03:49:50;;;;;;;37.57;19.47;;;;;;;3.75;83.95;94432.38;5062569;28;20263;-82
2021/12/26 03:52:16;;;;;;;39.27;19.47;;;;;;;3.98;84.33;94458.34;5063159;28;20301;-82
2021/12/26 03:54:42;;;;;;;34.33;18.70;;;;;;;3.88;83.93;94452.59;5059813;28;20730;-82
2021/12/26 03:57:07;;;;;;;32.97;18.10;;;;;;;3.68;84.54;94434.09;5067948;28;20193;-82
2021/12/26 03:59:33;;;;;;;35.70;19.13;;;;;;;3.89;84.41;94462.03;5064233;28;20171;-82
2021/12/26 04:01:58;;;;;;;35.43;17.73;;;;;;;3.91;84.17;94447.00;5055318;28;20183;-82
2021/12/26 04:04:25;;;;;;;35.83;19.60;;;;;;;3.97;84.00;94443.72;5064113;28;20578;-82
2021/12/26 04:06:50;;;;;;;31.57;17.77;;;;;;;4.17;83.57;94471.59;5064142;28;20166;-82
2021/12/26 04:09:16;;;;;;;37.37;18.60;;;;;;;4.03;83.19;94438.56;5063961;28;20202;-82
2021/12/26 04:11:45;;;;;;;37.30;19.00;;;;;;;4.15;83.16;94481.38;5062122;28;20209;-82
2021/12/26 04:14:15;;;;;;;55.50;28.17;;;;;;;3.85;83.84;94425.13;5062009;28;20178;-82
2021/12/26 04:16:41;;;;;;;41.00;19.73;;;;;;;4.12;83.57;94463.53;5061587;28;20178;-82
2021/12/26 04:19:06;;;;;;;38.70;21.17;;;;;;;4.18;83.54;94464.59;5062480;28;20561;-82
2021/12/26 04:21:32;;;;;;;41.00;23.20;;;;;;;4.32;83.30;94474.22;5063799;28;20641;-82
2021/12/26 04:23:58;;;;;;;38.37;20.40;;;;;;;4.41;83.11;94451.47;5058426;28;20658;-82
2021/12/26 04:26:25;;;;;;;46.03;23.80;;;;;;;4.34;82.38;94467.00;5052809;28;20237;-82
2021/12/26 04:28:51;;;;;;;43.27;20.33;;;;;;;4.39;82.70;94469.88;5070423;28;20212;-82
2021/12/26 04:31:16;;;;;;;37.47;20.17;;;;;;;4.38;83.12;94468.25;5062786;28;20178;-82
2021/12/26 04:33:43;;;;;;;38.57;20.27;;;;;;;4.22;83.00;94472.88;5061953;28;20182;-82
2021/12/26 04:36:10;;;;;;;42.23;21.80;;;;;;;4.10;83.43;94441.25;5070753;28;20205;-82
2021/12/26 04:38:36;;;;;;;43.47;24.40;;;;;;;4.14;83.44;94447.72;5060443;28;20672;-82
2021/12/26 04:41:04;;;;;;;51.77;23.80;;;;;;;3.99;83.17;94421.69;5065612;28;20174;-82
2021/12/26 04:43:30;;;;;;;47.57;23.50;;;;;;;4.23;83.58;94469.28;5063639;28;20711;-82
2021/12/26 04:45:55;;;;;;;40.73;21.60;;;;;;;4.21;83.95;94489.47;5063523;28;20182;-82
2021/12/26 04:48:23;;;;;;;35.60;20.23;;;;;;;4.08;83.93;94456.25;5063517;28;20202;-82
2021/12/26 04:50:49;;;;;;;35.70;18.43;;;;;;;4.21;83.86;94468.66;5072414;28;20339;-82
2021/12/26 04:53:14;;;;;;;35.57;17.43;;;;;;;4.13;83.47;94451.31;5064877;28;20604;-82
2021/12/26 04:55:40;;;;;;;34.10;18.33;;;;;;;4.32;83.10;94462.97;5061629;28;20223;-82
2021/12/26 04:58:05;;;;;;;55.17;26.50;;;;;;;4.44;82.88;94469.31;5063266;28;20166;-82
2021/12/26 05:00:33;;;;;;;52.87;24.27;;;;;;;4.43;83.13;94472.91;5058059;28;20257;-82
2021/12/26 05:03:02;;;;;;;35.23;20.70;;;;;;;4.37;82.82;94489.28;5059134;28;20277;-82
2021/12/26 05:05:29;;;;;;;46.57;21.27;;;;;;;4.38;83.18;94496.09;5061293;28;20174;-82
2021/12/26 05:07:56;;;;;;;53.13;25.20;;;;;;;4.28;83.69;94470.34;5057961;28;20288;-82
2021/12/26 05:10:25;;;;;;;63.60;27.77;;;;;;;4.45;83.33;94473.53;5062865;28;20171;-82
2021/12/26 05:12:50;;;;;;;45.40;23.50;;;;;;;4.41;82.79;94454.84;5061625;28;20174;-82
2021/12/26 05:15:16;;;;;;;45.90;23.20;;;;;;;4.63;82.66;94496.59;5069843;28;20170;-82
2021/12/26 05:17:42;;;;;;;46.80;23.40;;;;;;;4.50;82.62;94450.34;5060475;28;20167;-82
2021/12/26 05:20:10;;;;;;;63.67;28.87;;;;;;;4.74;82.03;94485.72;5060614;28;21053;-82
2021/12/26 05:22:35;;;;;;;51.67;26.87;;;;;;;4.58;82.16;94465.09;5061324;28;20194;-82
2021/12/26 05:25:03;;;;;;;58.83;28.83;;;;;;;4.70;81.99;94476.63;5067974;28;20258;-82
2021/12/26 05:27:28;;;;;;;57.20;29.90;;;;;;;4.76;82.38;94497.53;5063206;28;20179;-82
2021/12/26 05:29:53;;;;;;;58.43;29.13;;;;;;;4.86;82.41;94513.72;5062008;28;20233;-82
2021/12/26 05:32:19;;;;;;;62.07;31.10;;;;;;;4.94;82.01;94513.59;5059867;28;20186;-82
2021/12/26 05:34:44;;;;;;;67.63;31.50;;;;;;;4.79;81.86;94481.53;5063940;28;20185;-82
2021/12/26 05:37:09;;;;;;;58.33;28.87;;;;;;;4.99;81.85;94500.00;5059915;28;20249;-82
2021/12/26 05:39:35;;;;;;;63.97;31.50;;;;;;;4.97;82.06;94506.41;5062055;28;20174;-82
2021/12/26 05:42:00;;;;;;;64.50;33.87;;;;;;;4.95;82.47;94475.28;5064952;28;20174;-82
2021/12/26 05:44:29;;;;;;;55.50;29.90;;;;;;;5.03;82.19;94472.56;5061280;28;20183;-81
2021/12/26 05:46:54;;;;;;;68.37;32.83;;;;;;;5.10;82.36;94483.84;5062099;28;20167;-80
2021/12/26 05:49:20;;;;;;;52.90;26.77;;;;;;;5.03;82.97;94476.97;5063966;28;20643;-80
2021/12/26 05:51:47;;;;;;;53.47;24.87;;;;;;;4.99;82.88;94470.53;5065316;28;20174;-80
2021/12/26 05:54:13;;;;;;;45.70;23.97;;;;;;;5.12;83.18;94473.22;5059293;28;20312;-80
2021/12/26 05:56:38;;;;;;;37.97;21.70;;;;;;;5.15;83.31;94481.50;5057791;28;20711;-80
2021/12/26 05:59:04;;;;;;;44.90;23.50;;;;;;;5.16;83.54;94471.88;5064756;28;20171;-80
2021/12/26 06:01:29;;;;;;;39.90;20.53;;;;;;;5.02;83.71;94433.63;5062125;28;20674;-80
2021/12/26 06:03:55;;;;;;;40.27;21.47;;;;;;;4.88;83.95;94432.69;5060298;28;20791;-80
2021/12/26 06:06:21;;;;;;;32.47;18.60;;;;;;;5.00;84.76;94449.47;5061346;28;20182;-80
2021/12/26 06:08:46;;;;;;;34.97;18.57;;;;;;;4.91;85.04;94446.19;5058291;28;20245;-80
2021/12/26 06:11:11;;;;;;;47.43;26.23;;;;;;;5.02;85.21;94420.56;5059662;28;20175;-80
2021/12/26 06:13:37;;;;;;;50.33;26.07;;;;;;;5.05;85.48;94428.84;5060212;28;20647;-80
2021/12/26 06:16:03;;;;;;;55.50;27.67;;;;;;;4.98;85.97;94443.63;5066191;28;20179;-80
2021/12/26 06:18:28;;;;;;;53.63;25.60;;;;;;;4.83;86.39;94424.63;5066327;28;20185;-80
2021/12/26 06:20:54;;;;;;;38.23;18.27;;;;;;;4.87;86.45;94424.06;5062735;28;20163;-80
2021/12/26 06:23:22;;;;;;;32.20;16.70;;;;;;;5.10;86.12;94430.91;5065043;28;20186;-80
2021/12/26 06:25:47;;;;;;;31.03;15.37;;;;;;;5.13;86.01;94430.50;5061992;28;20673;-80
2021/12/26 06:28:12;;;;;;;27.67;15.33;;;;;;;5.07;85.91;94406.00;5061905;28;20199;-80
2021/12/26 06:30:38;;;;;;;28.97;14.70;;;;;;;5.30;85.62;94408.38;5067382;28;20167;-80
2021/12/26 06:33:04;;;;;;;26.77;13.13;;;;;;;5.33;85.12;94431.50;5068174;28;20177;-80
2021/12/26 06:35:29;;;;;;;26.63;13.87;;;;;;;5.24;85.87;94423.00;5075038;28;20528;-80
2021/12/26 06:37:54;;;;;;;27.27;13.60;;;;;;;5.23;86.05;94426.59;5065958;28;20166;-80
2021/12/26 06:40:20;;;;;;;23.13;12.97;;;;;;;5.32;85.77;94448.13;5068846;28;20195;-80
2021/12/26 06:42:49;;;;;;;29.37;13.97;;;;;;;5.43;85.91;94468.50;5058100;28;20265;-80
2021/12/26 06:45:18;;;;;;;34.30;16.47;;;;;;;5.53;85.98;94458.56;5070615;28;20622;-80
2021/12/26 06:47:49;;;;;;;32.10;16.10;;;;;;;5.62;85.86;94469.66;5065928;28;20277;-80
2021/12/26 06:50:16;;;;;;;37.13;18.63;;;;;;;5.42;85.54;94406.88;5056475;28;20171;-80
2021/12/26 06:52:42;;;;;;;34.10;18.17;;;;;;;5.81;84.99;94457.72;5054858;28;20543;-80
2021/12/26 06:55:08;;;;;;;32.87;18.13;;;;;;;5.65;84.91;94443.97;5056815;28;20222;-80
2021/12/26 06:57:34;;;;;;;33.83;17.97;;;;;;;5.52;84.92;94453.53;5058934;28;20191;-81
2021/12/26 06:59:59;;;;;;;29.60;17.27;;;;;;;5.53;86.16;94452.53;5061742;28;20174;-81
2021/12/26 07:02:24;;;;;;;42.90;20.90;;;;;;;5.66;86.07;94494.38;5063081;28;20572;-81
2021/12/26 07:04:50;;;;;;;50.07;25.77;;;;;;;5.55;86.11;94474.81;5060634;28;20646;-81
2021/12/26 07:07:15;;;;;;;64.27;34.93;;;;;;;5.35;87.47;94493.94;5063123;28;20214;-80
2021/12/26 07:09:43;;;;;;;56.43;30.47;;;;;;;5.35;88.27;94507.78;5062419;28;20230;-80
2021/12/26 07:12:10;;;;;;;57.90;31.23;;;;;;;5.15;88.78;94468.47;5061183;28;20300;-81
2021/12/26 07:14:35;;;;;;;57.00;30.17;;;;;;;5.40;89.01;94489.75;5064895;28;20198;-81
2021/12/26 07:17:01;;;;;;;60.53;33.83;;;;;;;5.42;89.03;94472.09;5063298;28;20305;-81
2021/12/26 07:19:29;;;;;;;60.57;32.97;;;;;;;5.42;88.41;94473.91;5066189;28;20246;-81
2021/12/26 07:21:54;;;;;;;70.87;38.27;;;;;;;5.51;88.44;94481.41;5061532;28;20174;-81
2021/12/26 07:24:20;;;;;;;86.63;48.53;;;;;;;5.67;88.24;94496.81;5064419;28;20650;-80
2021/12/26 07:26:45;;;;;;;83.93;43.87;;;;;;;5.65;88.12;94483.13;5053835;28;20191;-81
2021/12/26 07:29:10;;;;;;;70.80;38.73;;;;;;;5.75;87.83;94490.63;5053875;28;20191;-81
2021/12/26 07:31:36;;;;;;;75.07;40.03;;;;;;;5.79;87.86;94489.28;5060099;28;20175;-80
2021/12/26 07:34:08;;;;;;;73.27;40.27;;;;;;;5.81;87.20;94482.03;5068210;28;20649;-80
2021/12/26 07:36:34;;;;;;;56.27;31.77;;;;;;;5.72;87.58;94487.59;5057896;28;20251;-80
2021/12/26 07:38:59;;;;;;;54.87;30.67;;;;;;;5.73;87.98;94489.19;5063449;28;20178;-80
2021/12/26 07:41:25;;;;;;;48.03;27.20;;;;;;;5.86;87.76;94502.38;5059501;28;20619;-80
2021/12/26 07:43:50;;;;;;;54.03;27.80;;;;;;;5.87;87.55;94489.13;5060927;28;20202;-80
2021/12/26 07:46:16;;;;;;;47.20;27.17;;;;;;;5.72;87.50;94458.84;5061578;28;20262;-79
2021/12/26 07:48:42;;;;;;;63.13;34.27;;;;;;;5.92;88.01;94472.91;5064122;28;20206;-79
2021/12/26 07:51:07;;;;;;;60.50;31.70;;;;;;;5.97;87.69;94478.34;5068699;28;20175;-80
2021/12/26 07:53:33;;;;;;;49.93;26.27;;;;;;;6.01;87.71;94482.19;5062632;28;20167;-80
2021/12/26 07:55:59;;;;;;;53.83;28.57;;;;;;;5.93;87.96;94480.53;5059790;28;20218;-80
2021/12/26 07:58:24;;;;;;;45.93;24.93;;;;;;;6.06;88.57;94482.41;5064391;28;20178;-80
2021/12/26 08:00:51;;;;;;;53.70;28.43;;;;;;;6.07;87.72;94479.63;5061392;28;20652;-80
2021/12/26 08:03:16;;;;;;;51.40;28.13;;;;;;;6.08;87.81;94454.28;5067418;28;20175;-79
2021/12/26 08:05:42;;;;;;;41.97;18.97;;;;;;;6.31;87.31;94475.72;5065469;28;20177;-79
2021/12/26 08:08:07;;;;;;;30.00;17.80;;;;;;;6.41;86.11;94470.13;5061471;28;20229;-80
2021/12/26 08:10:32;;;;;;;32.30;16.20;;;;;;;6.49;85.24;94456.88;5067491;28;20672;-79
2021/12/26 08:12:58;;;;;;;20.13;11.63;;;;;;;6.47;84.42;94448.47;5063619;28;20183;-79
2021/12/26 08:15:23;;;;;;;24.33;13.67;;;;;;;6.63;85.12;94444.69;5065143;28;20171;-79
2021/12/26 08:17:49;;;;;;;29.30;13.70;;;;;;;6.70;84.27;94442.88;5064347;28;20167;-79
2021/12/26 08:20:14;;;;;;;22.37;12.17;;;;;;;6.85;84.08;94454.00;5063000;28;20649;-79
2021/12/26 08:22:40;;;;;;;25.17;14.23;;;;;;;6.80;83.66;94467.69;5061060;28;20182;-78
2021/12/26 08:25:06;;;;;;;29.70;13.37;;;;;;;6.58;84.42;94442.66;5073085;28;20165;-80
2021/12/26 08:27:35;;;;;;;27.73;12.27;;;;;;;6.91;84.60;94468.91;5071333;28;20174;-81
2021/12/26 08:30:00;;;;;;;18.67;10.43;;;;;;;7.02;83.02;94455.22;5061239;28;20214;-81
2021/12/26 08:32:27;;;;;;;21.17;12.13;;;;;;;6.95;83.16;94441.34;5058781;28;20190;-81
2021/12/26 08:34:53;;;;;;;24.70;11.80;;;;;;;7.16;82.93;94461.31;5054905;28;20175;-80
2021/12/26 08:37:18;;;;;;;23.30;11.33;;;;;;;7.22;82.21;94465.75;5059508;28;20178;-80
2021/12/26 08:39:46;;;;;;;20.50;11.13;;;;;;;7.11;83.37;94487.25;5052540;28;20230;-81
2021/12/26 08:42:13;;;;;;;24.00;12.00;;;;;;;7.09;83.51;94465.75;5052511;28;20178;-82
2021/12/26 08:44:39;;;;;;;25.73;11.50;;;;;;;7.31;83.64;94487.28;5052649;28;20697;-82
2021/12/26 08:47:07;;;;;;;22.40;12.53;;;;;;;7.39;83.63;94489.72;5052426;28;20171;-81
2021/12/26 08:49:32;;;;;;;32.80;17.30;;;;;;;7.41;83.59;94482.47;5052193;28;20678;-82
2021/12/26 08:51:59;;;;;;;50.20;22.90;;;;;;;7.38;83.31;94452.25;5052215;28;20175;-82
2021/12/26 08:54:26;;;;;;;56.87;26.37;;;;;;;7.56;82.61;94478.66;5052167;28;20223;-82
2021/12/26 08:56:53;;;;;;;54.73;26.73;;;;;;;7.43;82.69;94456.91;5052266;28;20151;-81
2021/12/26 08:59:19;;;;;;;49.87;24.50;;;;;;;7.62;82.50;94477.03;5052254;28;20171;-81
2021/12/26 09:01:45;;;;;;;38.00;20.83;;;;;;;7.69;81.68;94479.69;5052174;28;20635;-81
2021/12/26 09:04:11;;;;;;;42.87;19.73;;;;;;;7.56;81.60;94451.66;5052464;28;20171;-81
2021/12/26 09:06:36;;;;;;;37.93;19.97;;;;;;;7.68;82.02;94452.66;5051994;28;20201;-81
2021/12/26 09:09:03;;;;;;;22.03;12.57;;;;;;;7.69;80.77;94443.00;5050878;28;20670;-82
2021/12/26 09:11:29;;;;;;;25.33;12.13;;;;;;;7.70;80.15;94440.16;5052085;28;20178;-82
2021/12/26 09:13:54;;;;;;;26.20;13.47;;;;;;;7.66;80.30;94425.88;5052642;28;20167;-82
2021/12/26 09:16:19;;;;;;;23.13;11.83;;;;;;;7.75;80.95;94429.09;5051986;28;20573;-82
2021/12/26 09:18:45;;;;;;;19.63;11.80;;;;;;;7.63;80.55;94407.94;5052114;28;20642;-82
2021/12/26 09:21:10;;;;;;;28.37;14.93;;;;;;;7.96;80.12;94436.69;5051779;28;20267;-82
2021/12/26 09:23:36;;;;;;;34.97;17.10;;;;;;;8.16;79.72;94452.38;5050553;28;20174;-82
2021/12/26 09:26:01;;;;;;;36.70;18.20;;;;;;;8.22;79.39;94462.84;5032883;28;20621;-81
2021/12/26 09:28:28;;;;;;;45.20;21.90;;;;;;;8.31;80.43;94455.59;5031713;28;20738;-80
2021/12/26 09:30:56;;;;;;;50.90;23.17;;;;;;;8.28;80.20;94441.06;5031909;28;20167;-80
2021/12/26 09:33:22;;;;;;;43.77;23.40;;;;;;;8.36;79.48;94450.53;5031886;28;20232;-79
2021/12/26 09:35:49;;;;;;;33.27;20.50;;;;;;;8.54;80.05;94449.88;5031784;28;20184;-80
2021/12/26 09:38:14;;;;;;;33.40;19.67;;;;;;;8.42;79.44;94430.53;5030591;28;20640;-82
2021/12/26 09:40:43;;;;;;;34.00;19.30;;;;;;;8.68;79.37;94454.84;5063753;28;20195;-81
2021/12/26 09:43:09;;;;;;;38.57;18.93;;;;;;;8.52;79.96;94451.88;5031813;28;20254;-81
2021/12/26 09:45:35;;;;;;;40.40;19.60;;;;;;;8.60;79.74;94447.22;5032046;28;20258;-81
2021/12/26 09:48:00;;;;;;;30.27;15.57;;;;;;;8.80;78.76;94465.50;5063759;28;20211;-81
2021/12/26 09:50:26;;;;;;;38.53;17.90;;;;;;;8.46;78.89;94453.53;5041187;28;20180;-81
2021/12/26 09:52:55;;;;;;;60.57;29.40;;;;;;;8.67;79.92;94455.03;5036096;28;20180;-81
2021/12/26 09:55:22;;;;;;;34.13;18.67;;;;;;;8.70;79.53;94434.47;5046527;28;20234;-81
2021/12/26 09:57:47;;;;;;;28.67;15.17;;;;;;;8.88;76.85;94460.00;5054826;28;20206;-81
2021/12/26 10:00:37;;;;;;;29.23;16.07;;;;;;;9.04;77.07;94458.72;5053958;28;20191;-81
2021/12/26 10:03:12;;;;;;;29.77;16.27;;;;;;;9.17;78.45;94460.47;5055043;28;20166;-81
2021/12/26 10:06:06;;;;;;;29.27;14.90;;;;;;;9.24;77.06;94462.03;5054776;28;20650;-82
2021/12/26 10:08:34;;;;;;;22.80;11.50;;;;;;;9.18;75.83;94436.59;5035117;28;20184;-81
2021/12/26 10:11:17;;;;;;;32.77;12.50;;;;;;;9.36;75.56;94451.63;5034054;28;20952;-81
2021/12/26 10:13:46;;;;;;;22.70;12.33;;;;;;;9.29;75.34;94437.75;5035036;28;20167;-81
2021/12/26 10:16:14;;;;;;;14.80;9.27;;;;;;;9.57;74.53;94456.53;5053589;28;20631;-80
2021/12/26 10:18:43;;;;;;;14.23;7.13;;;;;;;9.74;74.13;94456.78;5052082;28;20163;-79
2021/12/26 10:21:29;;;;;;;19.77;8.67;;;;;;;9.76;73.26;94439.81;5054614;28;20659;-79
2021/12/26 10:24:18;;;;;;;15.63;8.23;;;;;;;9.46;72.43;94455.38;5054545;28;20190;-80
2021/12/26 10:26:53;;;;;;;14.13;8.00;;;;;;;9.63;74.42;94454.84;5035468;28;20190;-80
2021/12/26 10:29:32;;;;;;;14.57;7.90;;;;;;;9.78;73.14;94495.56;5044252;28;20191;-80
2021/12/26 10:32:10;;;;;;;16.20;7.60;;;;;;;9.90;73.53;94452.81;5054759;28;20223;-80
2021/12/26 10:34:48;;;;;;;14.87;8.57;;;;;;;9.70;71.38;94455.59;5044661;28;20258;-79
2021/12/26 10:37:19;;;;;;;18.93;7.77;;;;;;;9.69;71.79;94465.31;5046646;28;20269;-79
2021/12/26 10:39:51;;;;;;;18.50;7.83;;;;;;;9.72;71.03;94414.16;5049391;28;20167;-80
2021/12/26 10:42:20;;;;;;;9.97;6.23;;;;;;;9.58;70.15;94442.38;5049180;28;20659;-79
2021/12/26 10:44:51;;;;;;;16.77;7.50;;;;;;;9.60;71.74;94442.16;5034785;28;20188;-80
2021/12/26 10:47:24;;;;;;;16.50;6.80;;;;;;;9.79;71.34;94449.88;5050957;28;20764;-80
2021/12/26 10:49:59;;;;;;;17.03;8.23;;;;;;;9.99;70.92;94451.50;5053941;28;20335;-80
2021/12/26 10:52:31;;;;;;;9.60;5.70;;;;;;;9.90;69.49;94447.56;5051066;28;20171;-80
2021/12/26 10:55:03;;;;;;;13.13;6.27;;;;;;;10.08;70.48;94464.16;5053135;28;20222;-80
2021/12/26 10:57:30;;;;;;;10.93;6.17;;;;;;;10.31;69.90;94447.75;5048208;28;20187;-81
2021/12/26 11:00:07;;;;;;;10.30;5.57;;;;;;;10.26;68.81;94434.47;5034068;28;20275;-80
2021/12/26 11:02:34;;;;;;;12.23;6.70;;;;;;;10.41;68.30;94463.03;5033228;28;20164;-80
2021/12/26 11:05:24;;;;;;;13.03;7.63;;;;;;;10.52;67.96;94457.88;5034662;28;20624;-79
2021/12/26 11:07:56;;;;;;;18.87;7.80;;;;;;;10.50;66.86;94461.72;5034735;28;20219;-80
2021/12/26 11:10:27;;;;;;;13.17;7.80;;;;;;;10.56;68.05;94474.00;5054300;28;20553;-80
2021/12/26 11:12:59;;;;;;;17.37;10.00;;;;;;;10.66;68.48;94481.38;5054353;28;20166;-81
2021/12/26 11:15:31;;;;;;;14.23;9.77;;;;;;;10.66;68.57;94445.34;5053966;28;20175;-81
2021/12/26 11:18:17;;;;;;;17.10;9.83;;;;;;;10.88;67.37;94464.13;5052976;28;20255;-82
2021/12/26 11:21:00;;;;;;;1999.90;999.90;;;;;;;10.75;66.62;94462.44;5053886;28;20182;-80
2021/12/26 11:23:31;;;;;;;90.27;28.80;;;;;;;10.69;68.04;94444.91;5053973;28;20179;-79
2021/12/26 11:26:00;;;;;;;65.07;20.70;;;;;;;10.83;68.85;94470.03;5054054;28;20532;-79
2021/12/26 11:28:30;;;;;;;1999.90;999.90;;;;;;;10.96;70.54;94469.09;5054359;28;20194;-79
2021/12/26 11:31:05;;;;;;;1938.00;793.17;;;;;;;11.24;67.57;94453.47;5053776;28;20152;-79
2021/12/26 11:33:31;;;;;;;1999.90;966.97;;;;;;;11.23;65.98;94459.00;5054052;28;20276;-78